createdAt,value
2024-02-07T00:02:00.605Z,1.52
2024-02-07T00:04:27.572Z,1.55
2024-02-07T00:06:54.430Z,1.55
2024-02-07T00:09:21.748Z,1.95
2024-02-07T00:11:48.473Z,1.58
2024-02-07T00:14:15.201Z,1.40
2024-02-07T00:16:42.252Z,1.20
2024-02-07T00:19:09.311Z,1.63
2024-02-07T00:21:36.138Z,1.23
2024-02-07T00:24:02.877Z,1.70
2024-02-07T00:26:29.745Z,1.98
2024-02-07T00:28:56.756Z,1.40
2024-02-07T00:31:23.851Z,1.42
2024-02-07T00:33:50.645Z,1.02
2024-02-07T00:36:18.259Z,2.13
2024-02-07T00:38:45.238Z,2.65
2024-02-07T00:41:25.535Z,2.78
2024-02-07T00:43:54.616Z,1.23
2024-02-07T00:46:21.750Z,1.30
2024-02-07T00:48:48.825Z,1.92
2024-02-07T00:51:15.905Z,1.85
2024-02-07T00:53:43.303Z,1.33
2024-02-07T00:56:10.237Z,1.33
2024-02-07T00:58:37.109Z,1.20
2024-02-07T01:01:05.221Z,1.85
2024-02-07T01:03:33.084Z,1.88
2024-02-07T01:06:00.375Z,1.25
2024-02-07T01:08:27.244Z,1.50
2024-02-07T01:10:54.355Z,1.52
2024-02-07T01:13:21.225Z,1.35
2024-02-07T01:15:48.166Z,1.67
2024-02-07T01:18:14.913Z,1.60
2024-02-07T01:20:42.254Z,1.88
2024-02-07T01:23:09.607Z,2.13
2024-02-07T01:25:36.700Z,1.83
2024-02-07T01:28:04.082Z,1.30
2024-02-07T01:30:30.828Z,1.73
2024-02-07T01:32:57.661Z,1.70
2024-02-07T01:35:25.068Z,1.55
2024-02-07T01:37:52.282Z,1.73
2024-02-07T01:40:19.089Z,1.77
2024-02-07T01:42:45.778Z,1.92
2024-02-07T01:45:29.191Z,2.00
2024-02-07T01:47:57.069Z,1.52
2024-02-07T01:50:25.085Z,2.00
2024-02-07T01:52:55.489Z,2.10
2024-02-07T01:55:23.156Z,2.00
2024-02-07T01:57:50.231Z,2.40
2024-02-07T02:00:17.711Z,1.52
2024-02-07T02:02:49.727Z,2.10
2024-02-07T02:05:16.699Z,1.83
2024-02-07T02:07:44.881Z,2.03
2024-02-07T02:10:14.476Z,2.17
2024-02-07T02:12:43.314Z,2.10
2024-02-07T02:15:10.245Z,2.10
2024-02-07T02:17:37.362Z,1.85
2024-02-07T02:20:06.403Z,1.83
2024-02-07T02:22:33.358Z,1.83
2024-02-07T02:25:28.972Z,2.17
2024-02-07T02:28:19.966Z,2.10
2024-02-07T02:30:52.323Z,1.88
2024-02-07T02:35:48.230Z,1.90
2024-02-07T02:38:16.524Z,1.80
2024-02-07T02:40:44.524Z,1.80
2024-02-07T02:43:11.601Z,1.63
2024-02-07T02:45:38.438Z,2.05
2024-02-07T02:48:05.923Z,2.00
2024-02-07T02:50:33.382Z,2.25
2024-02-07T02:53:00.665Z,1.90
2024-02-07T02:55:28.573Z,1.95
2024-02-07T02:58:01.804Z,1.73
2024-02-07T03:00:29.223Z,1.88
2024-02-07T03:02:57.677Z,1.92
2024-02-07T03:05:43.979Z,2.15
2024-02-07T03:08:30.378Z,2.17
2024-02-07T03:10:57.280Z,1.63
2024-02-07T03:13:25.897Z,2.13
2024-02-07T03:15:53.537Z,1.90
2024-02-07T03:18:21.864Z,1.60
2024-02-07T03:20:50.947Z,1.45
2024-02-07T03:23:18.845Z,2.03
2024-02-07T03:25:46.219Z,1.73
2024-02-07T03:28:16.613Z,2.40
2024-02-07T03:30:43.641Z,2.00
2024-02-07T03:33:10.634Z,2.20
2024-02-07T03:35:38.541Z,2.08
2024-02-07T03:38:05.377Z,1.95
2024-02-07T03:40:32.524Z,2.42
2024-02-07T03:43:00.125Z,2.20
2024-02-07T03:45:26.976Z,1.98
2024-02-07T03:47:53.785Z,2.28
2024-02-07T03:50:26.926Z,1.95
2024-02-07T03:52:56.286Z,2.13
2024-02-07T03:55:23.145Z,2.70
2024-02-07T03:57:50.470Z,1.90
2024-02-07T04:00:18.177Z,2.17
2024-02-07T04:02:49.230Z,2.60
2024-02-07T04:05:19.661Z,1.98
2024-02-07T04:07:46.890Z,2.08
2024-02-07T04:10:13.917Z,2.10
2024-02-07T04:12:41.372Z,2.67
2024-02-07T04:15:27.977Z,2.10
2024-02-07T04:18:14.598Z,2.30
2024-02-07T04:21:08.074Z,2.55
2024-02-07T04:23:53.964Z,2.20
2024-02-07T04:26:47.941Z,2.40
2024-02-07T04:29:33.781Z,2.53
2024-02-07T04:32:19.188Z,2.70
2024-02-07T04:35:04.661Z,4.70
2024-02-07T04:37:50.220Z,4.70
2024-02-07T04:40:35.795Z,4.07
2024-02-07T04:43:21.332Z,3.58
2024-02-07T04:46:06.809Z,3.30
2024-02-07T04:48:52.161Z,3.75
2024-02-07T04:51:37.457Z,3.60
2024-02-07T04:54:22.767Z,3.78
2024-02-07T04:57:07.803Z,4.32
2024-02-07T04:59:53.093Z,3.15
2024-02-07T05:02:38.366Z,3.20
2024-02-07T05:05:24.113Z,3.55
2024-02-07T05:08:09.476Z,3.50
2024-02-07T05:10:54.927Z,3.63
2024-02-07T05:13:40.493Z,3.58
2024-02-07T05:16:14.078Z,4.40
2024-02-07T05:18:41.960Z,4.18
2024-02-07T05:21:14.238Z,3.65
2024-02-07T05:23:41.497Z,3.47
2024-02-07T05:26:08.986Z,4.40
2024-02-07T05:28:35.752Z,4.85
2024-02-07T05:31:02.406Z,4.15
2024-02-07T05:33:29.635Z,4.00
2024-02-07T05:35:56.565Z,3.75
2024-02-07T05:38:24.381Z,3.55
2024-02-07T05:40:51.121Z,3.67
2024-02-07T05:43:17.986Z,3.05
2024-02-07T05:45:44.715Z,3.20
2024-02-07T05:48:11.462Z,3.33
2024-02-07T05:50:38.190Z,3.45
2024-02-07T05:53:05.102Z,3.20
2024-02-07T05:55:31.973Z,3.38
2024-02-07T05:57:58.713Z,3.95
2024-02-07T06:00:25.416Z,3.80
2024-02-07T06:02:52.144Z,2.75
2024-02-07T06:05:20.263Z,3.58
2024-02-07T06:07:47.244Z,3.65
2024-02-07T06:10:14.242Z,2.88
2024-02-07T06:12:46.038Z,3.30
2024-02-07T06:15:13.077Z,2.80
2024-02-07T06:17:40.483Z,3.65
2024-02-07T06:20:09.933Z,3.03
2024-02-07T06:22:37.556Z,3.50
2024-02-07T06:25:07.635Z,3.17
2024-02-07T06:27:34.516Z,3.42
2024-02-07T06:30:01.400Z,3.00
2024-02-07T06:32:28.191Z,2.60
2024-02-07T06:34:55.054Z,2.90
2024-02-07T06:37:21.889Z,2.90
2024-02-07T06:39:48.659Z,3.22
2024-02-07T06:42:15.394Z,2.80
2024-02-07T06:44:42.096Z,3.25
2024-02-07T06:47:08.763Z,3.33
2024-02-07T06:49:38.522Z,3.20
2024-02-07T06:52:05.830Z,2.72
2024-02-07T06:54:32.612Z,2.70
2024-02-07T06:56:59.441Z,3.22
2024-02-07T06:59:26.206Z,3.05
2024-02-07T07:01:52.986Z,2.72
2024-02-07T07:04:19.832Z,2.75
2024-02-07T07:06:46.590Z,3.33
2024-02-07T07:09:13.444Z,3.00
2024-02-07T07:11:40.221Z,2.65
2024-02-07T07:14:07.006Z,3.00
2024-02-07T07:16:33.860Z,3.25
2024-02-07T07:19:01.287Z,3.20
2024-02-07T07:21:29.464Z,3.00
2024-02-07T07:23:56.385Z,2.83
2024-02-07T07:26:25.044Z,2.90
2024-02-07T07:28:52.173Z,2.97
2024-02-07T07:31:18.987Z,4.13
2024-02-07T07:33:45.687Z,2.47
2024-02-07T07:36:19.217Z,3.13
2024-02-07T07:38:46.081Z,3.67
2024-02-07T07:41:12.789Z,3.40
2024-02-07T07:43:39.547Z,2.75
2024-02-07T07:46:06.612Z,3.40
2024-02-07T07:48:33.585Z,3.10
2024-02-07T07:51:00.455Z,3.03
2024-02-07T07:53:27.177Z,3.00
2024-02-07T07:55:53.978Z,2.50
2024-02-07T07:58:25.144Z,3.22
2024-02-07T08:00:55.531Z,3.05
2024-02-07T08:03:22.301Z,2.85
2024-02-07T08:05:49.152Z,2.70
2024-02-07T08:08:16.035Z,3.17
2024-02-07T08:10:43.622Z,3.40
2024-02-07T08:13:10.312Z,2.83
2024-02-07T08:15:36.984Z,2.80
2024-02-07T08:18:04.240Z,3.00
2024-02-07T08:20:30.972Z,2.67
2024-02-07T08:22:57.804Z,2.83
2024-02-07T08:25:24.597Z,2.90
2024-02-07T08:27:51.292Z,3.08
2024-02-07T08:30:18.166Z,2.90
2024-02-07T08:32:44.807Z,3.78
2024-02-07T08:35:11.721Z,2.92
2024-02-07T08:37:38.926Z,2.72
2024-02-07T08:40:06.560Z,3.00
2024-02-07T08:42:36.110Z,3.88
2024-02-07T08:45:03.682Z,3.53
2024-02-07T08:47:30.808Z,3.72
2024-02-07T08:49:57.508Z,3.83
2024-02-07T08:52:24.654Z,3.50
2024-02-07T08:54:51.404Z,3.58
2024-02-07T08:57:18.044Z,3.28
2024-02-07T08:59:46.176Z,3.03
2024-02-07T09:02:14.332Z,3.90
2024-02-07T09:04:41.220Z,3.38
2024-02-07T09:07:07.997Z,2.70
2024-02-07T09:09:34.610Z,3.10
2024-02-07T09:12:01.273Z,3.40
2024-02-07T09:14:27.990Z,3.83
2024-02-07T09:16:54.743Z,3.08
2024-02-07T09:19:21.528Z,3.30
2024-02-07T09:21:48.178Z,3.83
2024-02-07T09:24:14.937Z,3.70
2024-02-07T09:26:41.605Z,3.05
2024-02-07T09:29:08.605Z,3.33
2024-02-07T09:31:35.296Z,3.35
2024-02-07T09:34:02.092Z,3.08
2024-02-07T09:36:28.970Z,3.58
2024-02-07T09:38:55.709Z,3.90
2024-02-07T09:41:24.491Z,3.55
2024-02-07T09:43:52.704Z,3.95
2024-02-07T09:46:22.690Z,4.85
2024-02-07T09:48:51.302Z,4.40
2024-02-07T09:51:19.918Z,3.25
2024-02-07T09:53:47.494Z,3.42
2024-02-07T09:56:16.089Z,3.38
2024-02-07T09:58:46.284Z,2.90
2024-02-07T10:01:14.970Z,2.95
2024-02-07T10:03:46.834Z,3.17
2024-02-07T10:06:14.487Z,2.80
2024-02-07T10:08:47.938Z,4.15
2024-02-07T10:11:15.643Z,3.33
2024-02-07T10:13:42.538Z,3.20
2024-02-07T10:16:10.385Z,3.05
2024-02-07T10:18:37.254Z,3.05
2024-02-07T10:21:04.737Z,2.60
2024-02-07T10:23:34.729Z,3.40
2024-02-07T10:26:01.778Z,3.65
2024-02-07T10:28:29.254Z,3.17
2024-02-07T10:30:59.996Z,3.60
2024-02-07T10:33:41.962Z,3.10
2024-02-07T10:36:10.070Z,2.90
2024-02-07T10:38:37.109Z,3.42
2024-02-07T10:41:04.434Z,3.05
2024-02-07T10:43:37.188Z,3.45
2024-02-07T10:46:07.067Z,2.97
2024-02-07T10:48:35.989Z,3.72
2024-02-07T10:51:04.212Z,2.50
2024-02-07T10:53:32.006Z,3.83
2024-02-07T10:56:03.256Z,3.00
2024-02-07T10:58:30.925Z,3.10
2024-02-07T11:00:58.416Z,2.10
2024-02-07T11:03:27.513Z,2.30
2024-02-07T11:05:54.352Z,2.22
2024-02-07T11:08:21.169Z,2.40
2024-02-07T11:10:48.655Z,3.17
2024-02-07T11:13:15.785Z,3.05
2024-02-07T11:15:42.732Z,2.50
2024-02-07T11:18:12.830Z,2.60
2024-02-07T11:20:41.565Z,2.45
2024-02-07T11:23:15.923Z,2.28
2024-02-07T11:25:45.070Z,2.45
2024-02-07T11:28:11.980Z,2.63
2024-02-07T11:30:38.823Z,2.80
2024-02-07T11:33:05.750Z,2.45
2024-02-07T11:35:35.970Z,2.65
2024-02-07T11:38:04.088Z,2.60
2024-02-07T11:40:41.884Z,2.30
2024-02-07T11:43:11.837Z,2.55
2024-02-07T11:45:39.176Z,2.40
2024-02-07T11:48:24.756Z,2.28
2024-02-07T11:50:53.381Z,2.10
2024-02-07T11:53:27.143Z,2.20
2024-02-07T11:55:53.997Z,1.85
2024-02-07T11:58:24.163Z,1.63
2024-02-07T12:00:51.378Z,1.80
2024-02-07T12:03:19.451Z,2.17
2024-02-07T12:05:47.432Z,2.30
2024-02-07T12:08:15.899Z,2.10
2024-02-07T12:10:42.959Z,1.85
2024-02-07T12:13:11.906Z,2.13
2024-02-07T12:15:38.817Z,2.03
2024-02-07T12:18:09.750Z,1.77
2024-02-07T12:20:38.740Z,2.03
2024-02-07T12:23:07.568Z,1.73
2024-02-07T12:25:34.538Z,2.35
2024-02-07T12:28:18.394Z,1.60
2024-02-07T12:30:45.079Z,2.05
2024-02-07T12:33:12.809Z,1.92
2024-02-07T12:35:50.596Z,2.15
2024-02-07T12:38:17.853Z,1.75
2024-02-07T12:40:47.489Z,2.22
2024-02-07T12:43:14.868Z,1.90
2024-02-07T12:45:41.549Z,1.80
2024-02-07T12:48:08.625Z,1.90
2024-02-07T12:50:35.470Z,1.70
2024-02-07T12:53:02.297Z,2.08
2024-02-07T12:55:29.138Z,1.88
2024-02-07T12:58:03.244Z,1.42
2024-02-07T13:00:30.096Z,1.73
2024-02-07T13:02:57.260Z,1.88
2024-02-07T13:05:24.538Z,2.15
2024-02-07T13:07:52.108Z,1.60
2024-02-07T13:10:18.981Z,2.08
2024-02-07T13:12:45.704Z,1.88
2024-02-07T13:15:18.107Z,2.15
2024-02-07T13:17:46.261Z,2.03
2024-02-07T13:20:13.323Z,1.52
2024-02-07T13:22:40.607Z,1.80
2024-02-07T13:25:12.222Z,2.13
2024-02-07T13:27:40.155Z,2.05
2024-02-07T13:30:08.348Z,1.70
2024-02-07T13:32:35.566Z,1.80
2024-02-07T13:35:02.836Z,1.35
2024-02-07T13:37:29.683Z,0.90
2024-02-07T13:39:57.448Z,0.90
2024-02-07T13:42:24.228Z,1.00
2024-02-07T13:44:50.998Z,1.25
2024-02-07T13:47:19.180Z,0.82
2024-02-07T13:49:46.072Z,0.90
2024-02-07T13:52:12.991Z,0.85
2024-02-07T13:54:39.728Z,0.80
2024-02-07T13:57:06.729Z,1.85
2024-02-07T13:59:33.409Z,1.13
2024-02-07T14:02:02.389Z,1.20
2024-02-07T14:04:29.373Z,0.85
2024-02-07T14:06:56.290Z,1.20
2024-02-07T14:09:23.054Z,1.05
2024-02-07T14:11:49.914Z,0.88
2024-02-07T14:14:16.709Z,1.05
2024-02-07T14:16:43.575Z,0.98
2024-02-07T14:19:10.305Z,1.42
2024-02-07T14:21:37.054Z,1.17
2024-02-07T14:24:05.018Z,1.20
2024-02-07T14:26:32.802Z,1.40
2024-02-07T14:28:59.842Z,1.10
2024-02-07T14:31:26.957Z,1.10
2024-02-07T14:33:53.754Z,1.10
2024-02-07T14:36:23.365Z,1.30
2024-02-07T14:38:50.284Z,1.40
2024-02-07T14:41:17.598Z,1.10
2024-02-07T14:43:44.629Z,1.73
2024-02-07T14:46:14.295Z,1.35
2024-02-07T14:48:43.305Z,1.40
2024-02-07T14:51:10.142Z,1.20
2024-02-07T14:53:36.940Z,1.20
2024-02-07T14:56:04.699Z,1.50
2024-02-07T14:58:31.502Z,0.95
2024-02-07T15:00:58.623Z,0.90
2024-02-07T15:03:25.568Z,1.20
2024-02-07T15:05:53.311Z,1.10
2024-02-07T15:08:20.292Z,1.50
2024-02-07T15:10:47.128Z,1.70
2024-02-07T15:13:14.167Z,1.55
2024-02-07T15:15:43.168Z,1.35
2024-02-07T15:18:11.696Z,1.35
2024-02-07T15:20:38.840Z,1.30
2024-02-07T15:23:05.605Z,1.48
2024-02-07T15:25:32.665Z,1.33
2024-02-07T15:27:59.593Z,1.80
2024-02-07T15:30:26.461Z,1.40
2024-02-07T15:32:53.327Z,1.70
2024-02-07T15:35:20.273Z,1.48
2024-02-07T15:37:47.185Z,1.50
2024-02-07T15:40:13.976Z,1.67
2024-02-07T15:42:40.722Z,2.08
2024-02-07T15:45:08.555Z,1.60
2024-02-07T15:47:36.060Z,1.90
2024-02-07T15:50:03.967Z,1.80
2024-02-07T15:52:31.123Z,1.88
2024-02-07T15:54:57.879Z,1.40
2024-02-07T15:57:24.674Z,1.40
2024-02-07T15:59:51.385Z,2.28
2024-02-07T16:02:18.210Z,2.47
2024-02-07T16:04:45.083Z,2.33
2024-02-07T16:07:12.257Z,2.92
2024-02-07T16:09:39.682Z,2.80
2024-02-07T16:12:06.734Z,2.28
2024-02-07T16:14:33.481Z,1.55
2024-02-07T16:17:00.313Z,1.85
2024-02-07T16:19:27.252Z,1.70
2024-02-07T16:21:55.899Z,1.58
2024-02-07T16:24:26.076Z,1.58
2024-02-07T16:26:54.509Z,1.38
2024-02-07T16:29:22.053Z,1.92
2024-02-07T16:31:49.084Z,1.30
2024-02-07T16:34:15.874Z,1.70
2024-02-07T16:36:43.417Z,2.13
2024-02-07T16:39:12.219Z,1.85
2024-02-07T16:41:39.216Z,1.80
2024-02-07T16:44:06.816Z,1.85
2024-02-07T16:46:33.642Z,1.52
2024-02-07T16:49:03.419Z,1.70
2024-02-07T16:51:31.161Z,1.52
2024-02-07T16:53:58.965Z,1.60
2024-02-07T16:56:26.347Z,1.58
2024-02-07T16:58:53.347Z,1.77
2024-02-07T17:01:24.255Z,1.70
2024-02-07T17:03:51.405Z,1.88
2024-02-07T17:06:19.038Z,1.73
2024-02-07T17:08:45.913Z,1.77
2024-02-07T17:11:12.754Z,3.00
2024-02-07T17:13:39.546Z,2.15
2024-02-07T17:16:09.010Z,2.50
2024-02-07T17:18:36.068Z,2.00
2024-02-07T17:21:03.386Z,1.70
2024-02-07T17:23:31.482Z,2.00
2024-02-07T17:25:58.934Z,1.83
2024-02-07T17:28:27.099Z,2.45
2024-02-07T17:30:54.114Z,2.45
2024-02-07T17:33:21.168Z,2.28
2024-02-07T17:35:48.032Z,2.10
2024-02-07T17:38:15.344Z,2.03
2024-02-07T17:40:42.901Z,2.40
2024-02-07T17:43:09.679Z,1.85
2024-02-07T17:45:36.421Z,2.80
2024-02-07T17:48:03.476Z,3.15
2024-02-07T17:50:34.933Z,3.30
2024-02-07T17:53:04.455Z,5.55
2024-02-07T17:55:31.823Z,5.40
2024-02-07T17:57:58.531Z,4.65
2024-02-07T18:00:25.327Z,5.15
2024-02-07T18:02:52.209Z,5.13
2024-02-07T18:05:24.340Z,4.40
2024-02-07T18:07:54.092Z,4.65
2024-02-07T18:10:21.478Z,4.50
2024-02-07T18:12:48.649Z,3.65
2024-02-07T18:15:16.261Z,3.55
2024-02-07T18:17:43.031Z,4.03
2024-02-07T18:20:10.690Z,2.42
2024-02-07T18:22:37.668Z,3.80
2024-02-07T18:25:05.030Z,3.28
2024-02-07T18:27:31.886Z,3.13
2024-02-07T18:29:58.665Z,2.90
2024-02-07T18:32:28.349Z,3.00
2024-02-07T18:34:55.937Z,2.97
2024-02-07T18:37:23.351Z,2.95
2024-02-07T18:39:51.297Z,3.20
2024-02-07T18:42:18.146Z,3.20
2024-02-07T18:44:44.825Z,3.22
2024-02-07T18:47:11.525Z,2.53
2024-02-07T18:49:38.303Z,2.53
2024-02-07T18:52:05.507Z,3.03
2024-02-07T18:54:32.175Z,3.15
2024-02-07T18:56:58.926Z,2.33
2024-02-07T18:59:25.645Z,2.55
2024-02-07T19:01:52.435Z,2.85
2024-02-07T19:04:19.416Z,2.58
2024-02-07T19:06:46.395Z,2.53
2024-02-07T19:09:13.179Z,2.90
2024-02-07T19:11:39.856Z,2.70
2024-02-07T19:14:06.604Z,2.50
2024-02-07T19:16:33.526Z,2.72
2024-02-07T19:19:00.398Z,2.75
2024-02-07T19:21:28.385Z,3.10
2024-02-07T19:23:55.167Z,3.00
2024-02-07T19:26:22.108Z,2.95
2024-02-07T19:28:48.949Z,2.70
2024-02-07T19:31:15.722Z,2.67
2024-02-07T19:33:42.522Z,3.20
2024-02-07T19:36:11.628Z,2.80
2024-02-07T19:38:38.455Z,2.70
2024-02-07T19:41:05.336Z,2.60
2024-02-07T19:43:32.135Z,3.08
2024-02-07T19:45:58.885Z,2.55
2024-02-07T19:48:25.668Z,3.70
2024-02-07T19:50:52.359Z,3.58
2024-02-07T19:53:19.034Z,3.60
2024-02-07T19:55:45.734Z,4.30
2024-02-07T19:58:15.649Z,4.25
2024-02-07T20:00:42.929Z,4.30
2024-02-07T20:03:09.835Z,3.95
2024-02-07T20:05:37.346Z,3.60
2024-02-07T20:08:05.199Z,3.38
2024-02-07T20:10:32.202Z,3.42
2024-02-07T20:12:58.916Z,3.63
2024-02-07T20:15:26.630Z,3.45
2024-02-07T20:17:53.624Z,2.80
2024-02-07T20:20:20.776Z,3.15
2024-02-07T20:22:47.635Z,3.67
2024-02-07T20:25:14.638Z,3.80
2024-02-07T20:27:41.366Z,2.88
2024-02-07T20:30:08.594Z,3.00
2024-02-07T20:32:35.343Z,3.58
2024-02-07T20:35:02.713Z,3.28
2024-02-07T20:37:29.568Z,3.95
2024-02-07T20:39:56.247Z,3.17
2024-02-07T20:42:22.990Z,2.85
2024-02-07T20:44:49.740Z,3.50
2024-02-07T20:47:16.511Z,2.67
2024-02-07T20:49:43.412Z,2.80
2024-02-07T20:52:10.273Z,2.88
2024-02-07T20:54:38.235Z,3.78
2024-02-07T20:57:05.674Z,3.17
2024-02-07T20:59:32.390Z,3.50
2024-02-07T21:01:59.165Z,3.10
2024-02-07T21:04:25.986Z,3.15
2024-02-07T21:06:52.780Z,3.22
2024-02-07T21:09:19.443Z,2.72
2024-02-07T21:11:46.131Z,3.30
2024-02-07T21:14:12.886Z,2.65
2024-02-07T21:16:39.608Z,3.88
2024-02-07T21:19:06.381Z,2.47
2024-02-07T21:21:33.173Z,3.10
2024-02-07T21:23:59.872Z,2.88
2024-02-07T21:26:26.616Z,2.70
2024-02-07T21:28:53.466Z,2.75
2024-02-07T21:31:20.212Z,2.95
2024-02-07T21:33:48.239Z,2.70
2024-02-07T21:36:15.006Z,3.03
2024-02-07T21:38:41.679Z,3.40
2024-02-07T21:41:08.546Z,3.40
2024-02-07T21:43:35.405Z,2.80
2024-02-07T21:46:03.682Z,3.72
2024-02-07T21:48:30.394Z,3.13
2024-02-07T21:50:57.190Z,2.88
2024-02-07T21:53:25.243Z,2.42
2024-02-07T21:55:54.730Z,2.63
2024-02-07T21:58:22.497Z,2.45
2024-02-07T22:00:49.345Z,2.08
2024-02-07T22:03:16.126Z,2.55
2024-02-07T22:05:42.841Z,2.05
2024-02-07T22:08:09.754Z,2.67
2024-02-07T22:10:36.700Z,2.38
2024-02-07T22:13:03.575Z,2.30
2024-02-07T22:15:31.110Z,2.67
2024-02-07T22:17:57.953Z,2.47
2024-02-07T22:20:24.800Z,2.40
2024-02-07T22:22:51.625Z,2.85
2024-02-07T22:25:18.483Z,2.05
2024-02-07T22:27:45.233Z,2.15
2024-02-07T22:30:12.797Z,2.33
2024-02-07T22:32:39.673Z,2.50
2024-02-07T22:35:06.613Z,2.05
2024-02-07T22:37:35.711Z,2.28
2024-02-07T22:40:03.552Z,2.13
2024-02-07T22:42:30.319Z,2.58
2024-02-07T22:44:57.052Z,2.65
2024-02-07T22:47:23.772Z,1.95
2024-02-07T22:49:50.741Z,2.55
2024-02-07T22:52:17.517Z,2.28
2024-02-07T22:54:45.380Z,1.95
2024-02-07T22:57:12.047Z,1.83
2024-02-07T22:59:38.754Z,2.42
2024-02-07T23:02:05.886Z,1.67
2024-02-07T23:04:33.077Z,2.03
2024-02-07T23:07:02.820Z,2.03
2024-02-07T23:09:29.543Z,2.20
2024-02-07T23:11:56.286Z,1.95
2024-02-07T23:14:23.110Z,2.00
2024-02-07T23:16:50.960Z,2.05
2024-02-07T23:19:17.750Z,1.98
2024-02-07T23:21:47.783Z,2.08
2024-02-07T23:24:14.490Z,2.00
2024-02-07T23:26:41.225Z,1.75
2024-02-07T23:29:08.092Z,1.70
2024-02-07T23:31:34.863Z,1.80
2024-02-07T23:34:02.193Z,1.80
2024-02-07T23:36:28.955Z,1.77
2024-02-07T23:38:56.229Z,1.95
2024-02-07T23:41:22.949Z,1.50
2024-02-07T23:43:49.974Z,1.48
2024-02-07T23:46:16.859Z,3.20
2024-02-07T23:48:43.862Z,1.80
2024-02-07T23:51:10.914Z,1.70
2024-02-07T23:53:37.636Z,1.75
2024-02-07T23:56:04.948Z,2.00
2024-02-07T23:58:31.765Z,1.55
